Estherville, Iowa
Current Conditions -  °F | °C
As of 7:52 AM on Thursday 23 Oct 2014 (Local Time) from KEST Reporting Station
Moderate Fog Moderate Fog  
Wind Chill: 50°   Ceiling: 200
Heat Index: 50°   Visibility: 0.5mi
Dew Point: 50°   Wind: 7mph
Humidity: 100%   Direction: 310°NW
Pressure: 30.01"   Gusts: NA
Location:  43.4°N, 94.84°W
Report Text: KEST 231252Z AUTO 31006KT 1/2SM FG VV002 10/10 A3001 RMK AO2 SLP164 T01000100
Loading
Personal Weather Stations






























Interactive Weather Map
Tropical Storm Tracking
New forecast layout! Learn more

10-Day Weather Forecast

Advertisements
Track Severe Weather on mobile